createdAt,value
2022-09-28T00:00:36.097Z,8.40
2022-09-28T00:03:03.879Z,8.40
2022-09-28T00:05:32.713Z,8.40
2022-09-28T00:08:02.387Z,8.40
2022-09-28T00:10:30.140Z,8.40
2022-09-28T00:13:00.609Z,8.40
2022-09-28T00:15:28.396Z,8.40
2022-09-28T00:17:56.141Z,8.40
2022-09-28T00:20:23.917Z,8.40
2022-09-28T00:22:51.669Z,8.40
2022-09-28T00:25:21.982Z,8.40
2022-09-28T00:27:51.091Z,8.40
2022-09-28T00:30:18.847Z,8.30
2022-09-28T00:32:46.580Z,8.30
2022-09-28T00:35:14.407Z,8.40
2022-09-28T00:37:42.146Z,8.40
2022-09-28T00:40:10.439Z,8.30
2022-09-28T00:42:42.743Z,8.40
2022-09-28T00:45:11.127Z,8.40
2022-09-28T00:47:49.654Z,8.30
2022-09-28T00:50:27.996Z,8.30
2022-09-28T00:53:02.199Z,8.30
2022-09-28T00:55:37.636Z,8.30
2022-09-28T00:58:11.558Z,8.30
2022-09-28T01:00:40.961Z,8.30
2022-09-28T01:03:09.520Z,8.30
2022-09-28T01:05:39.358Z,8.30
2022-09-28T01:08:08.439Z,8.30
2022-09-28T01:10:36.227Z,8.30
2022-09-28T01:13:04.034Z,8.30
2022-09-28T01:15:37.447Z,8.30
2022-09-28T01:18:14.101Z,8.20
2022-09-28T01:20:54.180Z,8.20
2022-09-28T01:23:50.317Z,8.20
2022-09-28T01:26:40.380Z,8.30
2022-09-28T01:29:18.468Z,8.30
2022-09-28T01:31:53.566Z,8.30
2022-09-28T01:34:26.690Z,8.30
2022-09-28T01:36:57.285Z,8.30
2022-09-28T01:39:30.401Z,8.30
2022-09-28T01:42:05.659Z,8.30
2022-09-28T01:44:40.186Z,8.20
2022-09-28T01:47:10.265Z,8.20
2022-09-28T01:49:42.583Z,8.20
2022-09-28T01:52:16.174Z,8.10
2022-09-28T01:54:47.239Z,8.20
2022-09-28T01:57:20.081Z,8.20
2022-09-28T01:59:55.741Z,8.10
2022-09-28T02:02:29.433Z,8.10
2022-09-28T02:05:03.051Z,8.10
2022-09-28T02:07:38.048Z,8.10
2022-09-28T02:10:11.019Z,8.10
2022-09-28T02:12:44.798Z,8.10
2022-09-28T02:15:17.835Z,8.20
2022-09-28T02:17:46.159Z,8.20
2022-09-28T02:20:14.740Z,8.20
2022-09-28T02:22:47.932Z,8.20
2022-09-28T02:25:23.452Z,8.10
2022-09-28T02:27:57.950Z,8.20
2022-09-28T02:30:25.831Z,8.20
2022-09-28T02:32:57.803Z,8.20
2022-09-28T02:35:25.787Z,8.10
2022-09-28T02:37:55.022Z,8.10
2022-09-28T02:40:27.803Z,8.10
2022-09-28T02:43:06.308Z,8.10
2022-09-28T02:45:52.352Z,8.10
2022-09-28T02:48:55.706Z,8.10
2022-09-28T02:51:39.152Z,8.10
2022-09-28T02:54:26.051Z,8.10
2022-09-28T02:57:04.179Z,8.10
2022-09-28T02:59:47.042Z,8.10
2022-09-28T03:02:26.355Z,8.10
2022-09-28T03:05:07.512Z,8.10
2022-09-28T03:07:38.599Z,8.10
2022-09-28T03:10:10.930Z,8.10
2022-09-28T03:12:39.872Z,8.10
2022-09-28T03:15:11.673Z,8.10
2022-09-28T03:17:39.696Z,8.10
2022-09-28T03:20:08.493Z,8.10
2022-09-28T03:22:36.264Z,8.10
2022-09-28T03:25:04.158Z,8.10
2022-09-28T03:27:32.104Z,8.10
2022-09-28T03:29:59.983Z,8.10
2022-09-28T03:32:29.818Z,8.10
2022-09-28T03:34:57.784Z,8.10
2022-09-28T03:37:25.632Z,8.10
2022-09-28T03:39:53.433Z,8.10
2022-09-28T03:42:21.426Z,8.10
2022-09-28T03:44:49.223Z,8.10
2022-09-28T03:47:18.953Z,8.10
2022-09-28T03:49:48.170Z,8.00
2022-09-28T03:52:16.345Z,8.00
2022-09-28T03:54:48.933Z,8.00
2022-09-28T03:57:17.114Z,8.00
2022-09-28T03:59:44.898Z,8.00
2022-09-28T04:02:12.795Z,8.10
2022-09-28T04:04:40.638Z,8.10
2022-09-28T04:07:09.794Z,8.10
2022-09-28T04:09:37.588Z,8.10
2022-09-28T04:12:05.623Z,8.10
2022-09-28T04:14:33.417Z,8.10
2022-09-28T04:17:01.711Z,8.10
2022-09-28T04:19:29.517Z,8.10
2022-09-28T04:21:57.312Z,8.10
2022-09-28T04:24:26.543Z,8.10
2022-09-28T04:27:14.368Z,8.10
2022-09-28T04:29:41.654Z,8.00
2022-09-28T04:32:09.529Z,8.10
2022-09-28T04:34:41.860Z,8.10
2022-09-28T04:37:11.671Z,8.00
2022-09-28T04:39:44.039Z,8.00
2022-09-28T04:42:15.774Z,8.00
2022-09-28T04:44:43.590Z,8.00
2022-09-28T04:47:11.452Z,8.00
2022-09-28T04:49:39.308Z,8.00
2022-09-28T04:52:07.649Z,8.00
2022-09-28T04:54:35.608Z,8.00
2022-09-28T04:57:06.061Z,8.00
2022-09-28T04:59:34.149Z,8.00
2022-09-28T05:02:01.979Z,8.00
2022-09-28T05:04:30.458Z,8.00
2022-09-28T05:06:58.239Z,8.00
2022-09-28T05:09:25.972Z,8.00
2022-09-28T05:11:53.910Z,8.00
2022-09-28T05:14:23.019Z,8.00
2022-09-28T05:16:50.905Z,8.00
2022-09-28T05:19:18.817Z,8.00
2022-09-28T05:21:48.676Z,8.00
2022-09-28T05:24:16.418Z,8.00
2022-09-28T05:26:44.211Z,8.00
2022-09-28T05:29:12.065Z,8.00
2022-09-28T05:31:41.247Z,7.90
2022-09-28T05:34:09.036Z,8.00
2022-09-28T05:36:39.055Z,8.00
2022-09-28T05:39:07.186Z,8.00
2022-09-28T05:41:34.953Z,8.00
2022-09-28T05:44:02.934Z,8.00
2022-09-28T05:46:30.740Z,8.00
2022-09-28T05:49:00.289Z,8.00
2022-09-28T05:51:28.822Z,8.00
2022-09-28T05:53:57.503Z,8.00
2022-09-28T05:56:26.569Z,8.00
2022-09-28T05:58:54.303Z,8.10
2022-09-28T06:01:22.758Z,8.10
2022-09-28T06:03:50.625Z,8.10
2022-09-28T06:06:19.717Z,8.10
2022-09-28T06:08:48.335Z,8.10
2022-09-28T06:11:16.073Z,8.10
2022-09-28T06:13:43.833Z,8.10
2022-09-28T06:16:16.410Z,8.10
2022-09-28T06:18:44.136Z,8.10
2022-09-28T06:21:13.696Z,8.10
2022-09-28T06:23:48.200Z,8.10
2022-09-28T06:26:17.575Z,8.10
2022-09-28T06:28:45.401Z,8.10
2022-09-28T06:31:13.192Z,8.10
2022-09-28T06:33:41.993Z,8.10
2022-09-28T06:36:10.320Z,8.10
2022-09-28T06:38:38.234Z,8.10
2022-09-28T06:41:07.589Z,8.20
2022-09-28T06:43:36.612Z,8.20
2022-09-28T06:46:04.699Z,8.20
2022-09-28T06:48:33.956Z,8.10
2022-09-28T06:51:02.138Z,8.20
2022-09-28T06:53:30.467Z,8.20
2022-09-28T06:55:58.222Z,8.20
2022-09-28T06:58:28.157Z,8.10
2022-09-28T07:00:59.449Z,8.20
2022-09-28T07:03:27.576Z,8.10
2022-09-28T07:05:56.493Z,8.10
2022-09-28T07:08:25.908Z,8.10
2022-09-28T07:10:56.174Z,8.10
2022-09-28T07:13:47.007Z,8.10
2022-09-28T07:16:13.759Z,8.20
2022-09-28T07:18:42.126Z,8.20
2022-09-28T07:21:18.575Z,8.20
2022-09-28T07:23:54.341Z,8.20
2022-09-28T07:26:24.371Z,8.20
2022-09-28T07:28:52.720Z,8.20
2022-09-28T07:31:22.922Z,8.20
2022-09-28T07:33:51.830Z,8.20
2022-09-28T07:36:20.853Z,8.20
2022-09-28T07:38:48.824Z,8.20
2022-09-28T07:41:21.484Z,8.30
2022-09-28T07:43:49.704Z,8.20
2022-09-28T07:46:17.635Z,8.30
2022-09-28T07:48:46.778Z,8.30
2022-09-28T07:51:14.505Z,8.30
2022-09-28T07:53:42.245Z,8.30
2022-09-28T07:56:10.289Z,8.30
2022-09-28T07:58:39.384Z,8.30
2022-09-28T08:01:08.943Z,8.40
2022-09-28T08:03:37.153Z,8.40
2022-09-28T08:06:09.771Z,8.40
2022-09-28T08:08:37.942Z,8.40
2022-09-28T08:11:08.324Z,8.50
2022-09-28T08:13:36.104Z,8.50
2022-09-28T08:16:08.251Z,8.50
2022-09-28T08:18:36.567Z,8.60
2022-09-28T08:21:24.598Z,8.50
2022-09-28T08:23:53.013Z,8.60
2022-09-28T08:26:20.782Z,8.60
2022-09-28T08:28:48.570Z,8.70
2022-09-28T08:31:16.381Z,8.80
2022-09-28T08:33:44.153Z,8.80
2022-09-28T08:36:13.274Z,8.80
2022-09-28T08:38:41.058Z,8.80
2022-09-28T08:41:19.158Z,8.90
2022-09-28T08:44:14.995Z,8.90
2022-09-28T08:46:46.390Z,8.90
2022-09-28T08:49:25.319Z,9.00
2022-09-28T08:52:00.478Z,9.00
2022-09-28T08:54:39.602Z,9.00
2022-09-28T08:57:12.633Z,9.00
2022-09-28T08:59:49.368Z,9.00
2022-09-28T09:02:22.778Z,9.10
2022-09-28T09:04:51.516Z,9.20
2022-09-28T09:07:34.892Z,9.20
2022-09-28T09:10:14.706Z,9.30
2022-09-28T09:15:38.781Z,9.40
2022-09-28T09:18:22.299Z,9.40
2022-09-28T09:20:55.344Z,9.40
2022-09-28T09:23:36.328Z,9.50
2022-09-28T09:26:15.676Z,9.50
2022-09-28T09:29:07.305Z,9.40
2022-09-28T09:31:50.918Z,9.40
2022-09-28T09:34:50.728Z,9.50
2022-09-28T09:37:36.416Z,9.50
2022-09-28T09:40:23.093Z,9.50
2022-09-28T09:43:02.402Z,9.50
2022-09-28T09:45:43.993Z,9.50
2022-09-28T09:48:18.884Z,9.60
2022-09-28T09:50:50.478Z,9.70
2022-09-28T09:53:24.695Z,9.70
2022-09-28T09:55:59.375Z,9.80
2022-09-28T09:58:32.421Z,9.80
2022-09-28T10:01:07.365Z,9.90
2022-09-28T10:03:37.764Z,9.90
2022-09-28T10:06:09.870Z,9.90
2022-09-28T10:08:42.680Z,10.00
2022-09-28T10:11:16.318Z,10.00
2022-09-28T10:13:44.601Z,10.00
2022-09-28T10:16:12.482Z,9.90
2022-09-28T10:18:40.306Z,9.90
2022-09-28T10:21:12.099Z,9.80
2022-09-28T10:23:41.910Z,9.80
2022-09-28T10:26:16.001Z,9.80
2022-09-28T10:28:49.139Z,9.80
2022-09-28T10:31:37.358Z,9.80
2022-09-28T10:34:05.883Z,9.80
2022-09-28T10:36:43.404Z,9.90
2022-09-28T10:39:29.036Z,9.90
2022-09-28T10:41:59.805Z,10.00
2022-09-28T10:44:28.411Z,10.10
2022-09-28T10:47:01.468Z,10.20
2022-09-28T10:49:33.261Z,10.30
2022-09-28T10:52:01.285Z,10.30
2022-09-28T10:54:30.477Z,10.30
2022-09-28T10:57:00.974Z,10.30
2022-09-28T10:59:42.531Z,10.30
2022-09-28T11:02:22.080Z,10.40
2022-09-28T11:04:55.840Z,10.40
2022-09-28T11:07:26.807Z,10.40
2022-09-28T11:09:56.158Z,10.40
2022-09-28T11:12:27.445Z,10.30
2022-09-28T11:15:02.324Z,10.30
2022-09-28T11:17:32.764Z,10.20
2022-09-28T11:20:02.824Z,10.20
2022-09-28T11:22:41.650Z,10.20
2022-09-28T11:25:23.558Z,10.20
2022-09-28T11:28:04.107Z,10.20
2022-09-28T11:30:34.909Z,10.20
2022-09-28T11:33:05.794Z,10.20
2022-09-28T11:35:46.921Z,10.20
2022-09-28T11:38:28.109Z,10.30
2022-09-28T11:41:03.601Z,10.30
2022-09-28T11:43:50.683Z,10.40
2022-09-28T11:46:28.452Z,10.40
2022-09-28T11:49:24.840Z,10.40
2022-09-28T14:02:29.922Z,11.40
2022-09-28T14:04:59.865Z,11.40
2022-09-28T14:07:48.295Z,11.40
2022-09-28T14:10:20.825Z,11.40
2022-09-28T14:12:50.201Z,11.30
2022-09-28T14:15:46.559Z,11.30
2022-09-28T14:18:31.729Z,11.30
2022-09-28T14:21:22.106Z,11.30
2022-09-28T14:24:04.382Z,11.30
2022-09-28T14:26:53.106Z,11.40
2022-09-28T14:29:28.766Z,11.50
2022-09-28T14:31:59.083Z,11.60
2022-09-28T14:34:37.618Z,11.60
2022-09-28T14:37:36.667Z,11.60
2022-09-28T14:40:34.592Z,11.70
2022-09-28T14:43:29.261Z,11.70
2022-09-28T14:46:28.101Z,11.70
2022-09-28T14:48:57.332Z,11.80
2022-09-28T14:51:46.279Z,11.90
2022-09-28T14:54:18.848Z,11.90
2022-09-28T14:56:57.340Z,11.90
2022-09-28T14:59:27.084Z,11.90
2022-09-28T15:02:00.971Z,11.90
2022-09-28T15:04:31.634Z,11.90
2022-09-28T15:07:00.767Z,11.90
2022-09-28T15:09:28.908Z,11.90
2022-09-28T15:12:01.199Z,11.90
2022-09-28T15:14:31.805Z,11.90
2022-09-28T15:17:03.321Z,11.90
2022-09-28T15:19:39.265Z,11.80
2022-09-28T15:22:17.108Z,11.80
2022-09-28T15:24:57.576Z,11.80
2022-09-28T15:27:35.422Z,11.80
2022-09-28T15:30:19.505Z,11.80
2022-09-28T15:32:47.259Z,11.80
2022-09-28T15:35:20.458Z,11.80
2022-09-28T15:37:51.890Z,11.70
2022-09-28T15:40:23.693Z,11.70
2022-09-28T15:42:53.907Z,11.70
2022-09-28T15:45:30.623Z,11.60
2022-09-28T15:48:19.231Z,11.60
2022-09-28T15:51:03.745Z,11.50
2022-09-28T15:53:34.171Z,11.50
2022-09-28T15:56:09.726Z,11.40
2022-09-28T15:58:38.585Z,11.40
2022-09-28T16:01:24.172Z,11.40
2022-09-28T16:03:51.995Z,11.40
2022-09-28T16:06:19.744Z,11.30
2022-09-28T16:08:49.353Z,11.30
2022-09-28T16:11:21.000Z,11.30
2022-09-28T16:13:57.167Z,11.30
2022-09-28T16:16:28.762Z,11.20
2022-09-28T16:19:00.450Z,11.20
2022-09-28T16:21:40.060Z,11.10
2022-09-28T16:24:20.301Z,11.10
2022-09-28T16:26:49.149Z,11.10
2022-09-28T16:29:26.917Z,11.00
2022-09-28T16:31:55.390Z,10.90
2022-09-28T16:34:26.782Z,10.90
2022-09-28T16:36:54.598Z,10.80
2022-09-28T16:39:23.723Z,10.80
2022-09-28T16:41:54.911Z,10.70
2022-09-28T16:44:25.779Z,10.70
2022-09-28T16:46:56.919Z,10.60
2022-09-28T16:49:26.735Z,10.50
2022-09-28T16:51:54.643Z,10.40
2022-09-28T16:54:43.224Z,10.30
2022-09-28T16:57:13.016Z,10.30
2022-09-28T16:59:40.806Z,10.20
2022-09-28T17:05:08.012Z,10.00
2022-09-28T17:07:36.062Z,9.90
2022-09-28T17:10:15.678Z,9.80
2022-09-28T17:12:43.443Z,9.80
2022-09-28T17:15:11.198Z,9.80
2022-09-28T17:17:39.124Z,9.70
2022-09-28T17:20:32.445Z,9.70
2022-09-28T17:23:01.293Z,9.70
2022-09-28T17:25:31.464Z,9.70
2022-09-28T17:27:59.684Z,9.70
2022-09-28T17:30:27.646Z,9.60
2022-09-28T17:32:55.414Z,9.60
2022-09-28T17:35:24.709Z,9.60
2022-09-28T17:37:53.551Z,9.50
2022-09-28T17:40:28.077Z,9.50
2022-09-28T17:42:57.645Z,9.40
2022-09-28T17:45:26.917Z,9.30
2022-09-28T17:47:54.785Z,9.30
2022-09-28T17:50:25.014Z,9.30
2022-09-28T17:52:53.812Z,9.30
2022-09-28T17:55:23.112Z,9.30
2022-09-28T17:57:51.597Z,9.30
2022-09-28T18:00:20.706Z,9.30
2022-09-28T18:02:48.542Z,9.20
2022-09-28T18:05:16.447Z,9.20
2022-09-28T18:07:47.739Z,9.20
2022-09-28T18:10:17.450Z,9.20
2022-09-28T18:12:45.177Z,9.20
2022-09-28T18:15:13.381Z,9.10
2022-09-28T18:17:42.557Z,9.10
2022-09-28T18:20:12.498Z,9.10
2022-09-28T18:22:40.331Z,9.00
2022-09-28T18:25:09.018Z,9.00
2022-09-28T18:27:36.742Z,9.00
2022-09-28T18:30:05.685Z,9.00
2022-09-28T18:32:36.705Z,8.90
2022-09-28T18:35:07.439Z,8.90
2022-09-28T18:37:37.273Z,8.90
2022-09-28T18:40:05.860Z,8.90
2022-09-28T18:42:35.776Z,8.80
2022-09-28T18:45:03.738Z,8.80
2022-09-28T18:47:31.478Z,8.70
2022-09-28T18:49:59.231Z,8.70
2022-09-28T18:52:28.417Z,8.60
2022-09-28T18:54:56.234Z,8.60
2022-09-28T18:57:24.012Z,8.60
2022-09-28T18:59:51.724Z,8.50
2022-09-28T19:02:19.572Z,8.50
2022-09-28T19:04:47.428Z,8.50
2022-09-28T19:07:15.181Z,8.50
2022-09-28T19:09:44.245Z,8.40
2022-09-28T19:12:12.109Z,8.40
2022-09-28T19:14:40.021Z,8.40
2022-09-28T19:17:07.790Z,8.40
2022-09-28T19:19:35.717Z,8.30
2022-09-28T19:22:03.480Z,8.30
2022-09-28T19:24:31.278Z,8.30
2022-09-28T19:27:00.372Z,8.30
2022-09-28T19:29:28.206Z,8.30
2022-09-28T19:31:56.654Z,8.20
2022-09-28T19:34:26.928Z,8.20
2022-09-28T19:36:54.663Z,8.20
2022-09-28T19:39:22.376Z,8.10
2022-09-28T19:41:51.166Z,8.10
2022-09-28T19:44:25.565Z,8.10
2022-09-28T19:46:55.151Z,8.10
2022-09-28T19:49:24.169Z,8.10
2022-09-28T19:52:12.657Z,8.00
2022-09-28T19:54:43.666Z,8.00
2022-09-28T19:57:11.885Z,8.00
2022-09-28T19:59:40.990Z,7.90
2022-09-28T20:02:11.037Z,7.90
2022-09-28T20:04:38.920Z,7.80
2022-09-28T20:07:06.631Z,7.80
2022-09-28T20:09:34.513Z,7.80
2022-09-28T20:12:02.524Z,7.80
2022-09-28T20:14:33.057Z,7.80
2022-09-28T20:17:06.927Z,7.80
2022-09-28T20:19:34.899Z,7.80
2022-09-28T20:22:02.961Z,7.80
2022-09-28T20:24:31.375Z,7.70
2022-09-28T20:27:01.052Z,7.80
2022-09-28T20:29:28.898Z,7.70
2022-09-28T20:31:56.666Z,7.70
2022-09-28T20:34:25.770Z,7.70
2022-09-28T20:36:53.544Z,7.70
2022-09-28T20:39:21.489Z,7.70
2022-09-28T20:41:49.320Z,7.70
2022-09-28T20:44:17.183Z,7.70
2022-09-28T20:46:45.001Z,7.70
2022-09-28T20:49:13.000Z,7.70
2022-09-28T20:51:42.081Z,7.70
2022-09-28T20:54:09.989Z,7.60
2022-09-28T20:56:38.740Z,7.60
2022-09-28T20:59:08.363Z,7.60
2022-09-28T21:01:36.300Z,7.50
2022-09-28T21:04:06.248Z,7.50
2022-09-28T21:06:35.981Z,7.50
2022-09-28T21:09:06.159Z,7.50
2022-09-28T21:11:35.389Z,7.50
2022-09-28T21:14:06.159Z,7.50
2022-09-28T21:16:35.674Z,7.50
2022-09-28T21:19:04.007Z,7.50
2022-09-28T21:21:32.030Z,7.40
2022-09-28T21:24:00.225Z,7.40
2022-09-28T21:26:31.094Z,7.40
2022-09-28T21:29:00.203Z,7.40
2022-09-28T21:31:31.295Z,7.40
2022-09-28T21:33:59.576Z,7.30
2022-09-28T21:36:27.470Z,7.30
2022-09-28T21:38:56.002Z,7.30
2022-09-28T21:41:24.467Z,7.30
2022-09-28T21:43:53.728Z,7.30
2022-09-28T21:46:21.734Z,7.20
2022-09-28T21:48:53.260Z,7.20
2022-09-28T21:51:21.069Z,7.20
2022-09-28T21:53:49.499Z,7.20
2022-09-28T21:56:17.427Z,7.20
2022-09-28T21:58:45.160Z,7.20
2022-09-28T22:01:17.813Z,7.20
2022-09-28T22:03:47.806Z,7.20
2022-09-28T22:06:16.946Z,7.20
2022-09-28T22:08:45.257Z,7.10
2022-09-28T22:11:14.788Z,7.10
2022-09-28T22:13:44.688Z,7.10
2022-09-28T22:16:15.521Z,7.10
2022-09-28T22:18:43.654Z,7.10
2022-09-28T22:21:13.651Z,7.00
2022-09-28T22:23:42.053Z,7.10
2022-09-28T22:26:11.296Z,7.00
2022-09-28T22:28:40.038Z,7.00
2022-09-28T22:31:07.794Z,7.10
2022-09-28T22:33:36.893Z,7.10
2022-09-28T22:36:05.242Z,7.00
2022-09-28T22:38:33.512Z,7.10
2022-09-28T22:41:03.586Z,7.10
2022-09-28T22:43:31.908Z,7.00
2022-09-28T22:46:03.903Z,7.00
2022-09-28T22:48:31.734Z,7.00
2022-09-28T22:51:00.855Z,7.00
2022-09-28T22:53:29.324Z,7.00
2022-09-28T22:55:58.124Z,7.00
2022-09-28T22:58:25.991Z,7.00
2022-09-28T23:00:54.010Z,6.90
2022-09-28T23:03:21.820Z,6.90
2022-09-28T23:05:59.741Z,6.90
2022-09-28T23:08:27.566Z,6.90
2022-09-28T23:10:55.621Z,6.90
2022-09-28T23:13:23.397Z,6.90
2022-09-28T23:15:58.241Z,6.90
2022-09-28T23:18:28.312Z,6.90
2022-09-28T23:20:56.596Z,6.90
2022-09-28T23:23:26.079Z,6.90
2022-09-28T23:25:54.284Z,6.90
2022-09-28T23:28:24.413Z,6.90
2022-09-28T23:30:52.627Z,6.90
2022-09-28T23:33:22.388Z,6.90
2022-09-28T23:35:50.292Z,6.90
2022-09-28T23:38:19.367Z,6.80
2022-09-28T23:40:48.719Z,6.80
2022-09-28T23:43:16.573Z,6.90
2022-09-28T23:45:44.326Z,6.90
2022-09-28T23:48:14.863Z,6.90
2022-09-28T23:50:42.929Z,6.90
2022-09-28T23:53:10.712Z,6.90
2022-09-28T23:55:38.426Z,7.00
2022-09-28T23:58:07.554Z,7.00
